sensor_id;sensor_type;location;lat;lon;timestamp;P1;durP1;ratioP1;P2;durP2;ratioP2
48403;SDS011;34202;52.536;6.042;2022-12-18T00:04:42;63.10;;;25.80;;
48403;SDS011;34202;52.536;6.042;2022-12-18T00:09:42;64.00;;;26.80;;
48403;SDS011;34202;52.536;6.042;2022-12-18T00:14:43;67.70;;;30.50;;
48403;SDS011;34202;52.536;6.042;2022-12-18T00:19:43;69.60;;;29.90;;
48403;SDS011;34202;52.536;6.042;2022-12-18T00:24:43;74.20;;;29.90;;
48403;SDS011;34202;52.536;6.042;2022-12-18T00:29:44;72.20;;;31.10;;
48403;SDS011;34202;52.536;6.042;2022-12-18T00:34:44;77.40;;;34.30;;
48403;SDS011;34202;52.536;6.042;2022-12-18T00:39:44;70.00;;;30.60;;
48403;SDS011;34202;52.536;6.042;2022-12-18T00:44:45;80.10;;;31.30;;
48403;SDS011;34202;52.536;6.042;2022-12-18T00:49:45;66.70;;;29.20;;
48403;SDS011;34202;52.536;6.042;2022-12-18T00:54:45;68.70;;;28.60;;
48403;SDS011;34202;52.536;6.042;2022-12-18T00:59:46;64.70;;;28.70;;
48403;SDS011;34202;52.536;6.042;2022-12-18T01:04:46;70.70;;;30.10;;
48403;SDS011;34202;52.536;6.042;2022-12-18T01:09:46;68.20;;;30.00;;
48403;SDS011;34202;52.536;6.042;2022-12-18T01:14:47;59.90;;;27.20;;
48403;SDS011;34202;52.536;6.042;2022-12-18T01:19:47;62.50;;;28.40;;
48403;SDS011;34202;52.536;6.042;2022-12-18T01:24:47;78.10;;;30.80;;
48403;SDS011;34202;52.536;6.042;2022-12-18T01:29:48;69.10;;;27.40;;
48403;SDS011;34202;52.536;6.042;2022-12-18T01:34:49;81.60;;;31.70;;
48403;SDS011;34202;52.536;6.042;2022-12-18T01:39:49;71.10;;;30.30;;
48403;SDS011;34202;52.536;6.042;2022-12-18T01:45:08;69.80;;;29.50;;
48403;SDS011;34202;52.536;6.042;2022-12-18T01:50:24;77.40;;;32.40;;
48403;SDS011;34202;52.536;6.042;2022-12-18T01:55:31;83.50;;;31.80;;
48403;SDS011;34202;52.536;6.042;2022-12-18T02:00:37;76.60;;;28.90;;
48403;SDS011;34202;52.536;6.042;2022-12-18T02:11:16;67.40;;;27.40;;
48403;SDS011;34202;52.536;6.042;2022-12-18T02:21:45;62.10;;;27.40;;
48403;SDS011;34202;52.536;6.042;2022-12-18T02:26:57;64.90;;;27.90;;
48403;SDS011;34202;52.536;6.042;2022-12-18T02:32:00;73.90;;;28.70;;
48403;SDS011;34202;52.536;6.042;2022-12-18T02:37:04;70.70;;;27.60;;
48403;SDS011;34202;52.536;6.042;2022-12-18T02:42:09;59.80;;;25.20;;
48403;SDS011;34202;52.536;6.042;2022-12-18T02:47:11;55.70;;;24.80;;
48403;SDS011;34202;52.536;6.042;2022-12-18T02:52:18;60.60;;;25.50;;
48403;SDS011;34202;52.536;6.042;2022-12-18T02:57:37;58.50;;;27.50;;
48403;SDS011;34202;52.536;6.042;2022-12-18T03:02:54;50.20;;;21.80;;
48403;SDS011;34202;52.536;6.042;2022-12-18T03:08:15;55.00;;;24.60;;
48403;SDS011;34202;52.536;6.042;2022-12-18T03:13:21;47.30;;;22.00;;
48403;SDS011;34202;52.536;6.042;2022-12-18T03:18:32;54.50;;;23.70;;
48403;SDS011;34202;52.536;6.042;2022-12-18T03:23:49;57.60;;;24.70;;
48403;SDS011;34202;52.536;6.042;2022-12-18T03:28:54;57.70;;;25.70;;
48403;SDS011;34202;52.536;6.042;2022-12-18T03:34:01;51.70;;;20.90;;
48403;SDS011;34202;52.536;6.042;2022-12-18T03:39:05;62.70;;;24.40;;
48403;SDS011;34202;52.536;6.042;2022-12-18T03:44:18;58.50;;;25.10;;
48403;SDS011;34202;52.536;6.042;2022-12-18T03:49:46;52.60;;;24.70;;
48403;SDS011;34202;52.536;6.042;2022-12-18T03:54:52;54.70;;;22.50;;
48403;SDS011;34202;52.536;6.042;2022-12-18T03:59:56;54.50;;;26.30;;
48403;SDS011;34202;52.536;6.042;2022-12-18T04:05:00;46.80;;;19.20;;
48403;SDS011;34202;52.536;6.042;2022-12-18T04:10:05;53.10;;;22.60;;
48403;SDS011;34202;52.536;6.042;2022-12-18T04:15:08;58.20;;;22.90;;
48403;SDS011;34202;52.536;6.042;2022-12-18T04:20:09;53.90;;;23.30;;
48403;SDS011;34202;52.536;6.042;2022-12-18T04:25:10;47.60;;;20.60;;
48403;SDS011;34202;52.536;6.042;2022-12-18T04:30:10;49.60;;;22.80;;
48403;SDS011;34202;52.536;6.042;2022-12-18T04:35:11;44.60;;;19.80;;
48403;SDS011;34202;52.536;6.042;2022-12-18T04:40:11;40.70;;;20.10;;
48403;SDS011;34202;52.536;6.042;2022-12-18T04:45:12;42.00;;;21.80;;
48403;SDS011;34202;52.536;6.042;2022-12-18T04:50:12;44.80;;;20.00;;
48403;SDS011;34202;52.536;6.042;2022-12-18T04:55:13;47.20;;;20.20;;
48403;SDS011;34202;52.536;6.042;2022-12-18T05:00:13;40.10;;;18.70;;
48403;SDS011;34202;52.536;6.042;2022-12-18T05:05:14;40.80;;;17.40;;
48403;SDS011;34202;52.536;6.042;2022-12-18T05:10:14;42.50;;;20.60;;
48403;SDS011;34202;52.536;6.042;2022-12-18T05:15:15;37.40;;;19.00;;
48403;SDS011;34202;52.536;6.042;2022-12-18T05:20:15;40.60;;;17.30;;
48403;SDS011;34202;52.536;6.042;2022-12-18T05:25:16;36.40;;;17.80;;
48403;SDS011;34202;52.536;6.042;2022-12-18T05:30:17;39.50;;;17.10;;
48403;SDS011;34202;52.536;6.042;2022-12-18T05:35:17;35.40;;;16.40;;
48403;SDS011;34202;52.536;6.042;2022-12-18T05:40:18;38.00;;;17.70;;
48403;SDS011;34202;52.536;6.042;2022-12-18T05:45:18;33.70;;;18.60;;
48403;SDS011;34202;52.536;6.042;2022-12-18T05:50:18;33.40;;;17.40;;
48403;SDS011;34202;52.536;6.042;2022-12-18T05:55:19;37.50;;;17.50;;
48403;SDS011;34202;52.536;6.042;2022-12-18T06:00:19;37.10;;;18.40;;
48403;SDS011;34202;52.536;6.042;2022-12-18T06:05:19;39.80;;;17.90;;
48403;SDS011;34202;52.536;6.042;2022-12-18T06:10:20;39.90;;;18.50;;
48403;SDS011;34202;52.536;6.042;2022-12-18T06:15:20;36.70;;;17.10;;
48403;SDS011;34202;52.536;6.042;2022-12-18T06:20:21;34.10;;;16.20;;
48403;SDS011;34202;52.536;6.042;2022-12-18T06:25:21;35.70;;;16.60;;
48403;SDS011;34202;52.536;6.042;2022-12-18T06:30:22;35.10;;;14.70;;
48403;SDS011;34202;52.536;6.042;2022-12-18T06:35:22;34.90;;;16.40;;
48403;SDS011;34202;52.536;6.042;2022-12-18T06:40:23;32.40;;;16.00;;
48403;SDS011;34202;52.536;6.042;2022-12-18T06:45:23;31.60;;;15.70;;
48403;SDS011;34202;52.536;6.042;2022-12-18T06:50:24;30.70;;;15.10;;
48403;SDS011;34202;52.536;6.042;2022-12-18T06:55:24;37.30;;;15.90;;
48403;SDS011;34202;52.536;6.042;2022-12-18T07:00:24;35.20;;;15.20;;
48403;SDS011;34202;52.536;6.042;2022-12-18T07:05:25;28.30;;;15.40;;
48403;SDS011;34202;52.536;6.042;2022-12-18T07:10:25;28.00;;;13.50;;
48403;SDS011;34202;52.536;6.042;2022-12-18T07:15:26;28.70;;;14.00;;
48403;SDS011;34202;52.536;6.042;2022-12-18T07:20:26;35.80;;;16.20;;
48403;SDS011;34202;52.536;6.042;2022-12-18T07:25:26;33.50;;;14.90;;
48403;SDS011;34202;52.536;6.042;2022-12-18T07:30:27;32.50;;;15.80;;
48403;SDS011;34202;52.536;6.042;2022-12-18T07:35:27;26.30;;;14.40;;
48403;SDS011;34202;52.536;6.042;2022-12-18T07:40:28;29.30;;;14.40;;
48403;SDS011;34202;52.536;6.042;2022-12-18T07:45:29;28.30;;;13.70;;
48403;SDS011;34202;52.536;6.042;2022-12-18T07:50:29;27.80;;;13.10;;
48403;SDS011;34202;52.536;6.042;2022-12-18T07:55:30;39.60;;;16.40;;
48403;SDS011;34202;52.536;6.042;2022-12-18T08:00:31;30.50;;;15.20;;
48403;SDS011;34202;52.536;6.042;2022-12-18T08:05:31;35.30;;;15.30;;
48403;SDS011;34202;52.536;6.042;2022-12-18T08:10:31;34.80;;;15.80;;
48403;SDS011;34202;52.536;6.042;2022-12-18T08:15:32;26.20;;;12.60;;
48403;SDS011;34202;52.536;6.042;2022-12-18T08:20:32;25.60;;;14.20;;
48403;SDS011;34202;52.536;6.042;2022-12-18T08:25:33;24.90;;;12.80;;
48403;SDS011;34202;52.536;6.042;2022-12-18T08:30:33;25.50;;;12.80;;
48403;SDS011;34202;52.536;6.042;2022-12-18T08:35:35;22.50;;;12.40;;
48403;SDS011;34202;52.536;6.042;2022-12-18T08:40:36;25.40;;;12.90;;
48403;SDS011;34202;52.536;6.042;2022-12-18T08:45:37;21.60;;;11.80;;
48403;SDS011;34202;52.536;6.042;2022-12-18T08:50:37;21.50;;;10.80;;
48403;SDS011;34202;52.536;6.042;2022-12-18T08:55:37;26.50;;;12.60;;
48403;SDS011;34202;52.536;6.042;2022-12-18T09:00:38;23.30;;;11.40;;
48403;SDS011;34202;52.536;6.042;2022-12-18T09:05:38;23.00;;;12.30;;
48403;SDS011;34202;52.536;6.042;2022-12-18T09:10:42;21.00;;;12.30;;
48403;SDS011;34202;52.536;6.042;2022-12-18T09:15:44;19.30;;;10.30;;
48403;SDS011;34202;52.536;6.042;2022-12-18T09:20:47;24.60;;;12.50;;
48403;SDS011;34202;52.536;6.042;2022-12-18T09:25:47;17.80;;;11.40;;
48403;SDS011;34202;52.536;6.042;2022-12-18T09:30:49;21.20;;;11.00;;
48403;SDS011;34202;52.536;6.042;2022-12-18T09:35:49;21.50;;;11.20;;
48403;SDS011;34202;52.536;6.042;2022-12-18T09:40:52;20.20;;;11.30;;
48403;SDS011;34202;52.536;6.042;2022-12-18T09:45:59;18.60;;;11.60;;
48403;SDS011;34202;52.536;6.042;2022-12-18T09:51:23;23.00;;;10.20;;
48403;SDS011;34202;52.536;6.042;2022-12-18T09:56:54;15.70;;;9.70;;
48403;SDS011;34202;52.536;6.042;2022-12-18T10:01:54;19.40;;;8.70;;
48403;SDS011;34202;52.536;6.042;2022-12-18T10:06:58;20.30;;;10.30;;
48403;SDS011;34202;52.536;6.042;2022-12-18T10:17:35;17.20;;;9.50;;
48403;SDS011;34202;52.536;6.042;2022-12-18T10:23:10;17.50;;;8.40;;
48403;SDS011;34202;52.536;6.042;2022-12-18T10:28:38;14.70;;;6.90;;
48403;SDS011;34202;52.536;6.042;2022-12-18T10:33:40;13.30;;;7.80;;
48403;SDS011;34202;52.536;6.042;2022-12-18T10:38:41;16.50;;;8.90;;
48403;SDS011;34202;52.536;6.042;2022-12-18T10:43:41;13.50;;;8.30;;
48403;SDS011;34202;52.536;6.042;2022-12-18T10:53:51;14.00;;;6.70;;
48403;SDS011;34202;52.536;6.042;2022-12-18T10:59:07;14.80;;;7.80;;
48403;SDS011;34202;52.536;6.042;2022-12-18T11:04:09;17.50;;;9.00;;
48403;SDS011;34202;52.536;6.042;2022-12-18T11:09:19;13.00;;;7.50;;
48403;SDS011;34202;52.536;6.042;2022-12-18T11:14:29;13.40;;;7.90;;
48403;SDS011;34202;52.536;6.042;2022-12-18T11:19:39;13.10;;;7.20;;
48403;SDS011;34202;52.536;6.042;2022-12-18T11:24:41;11.10;;;6.00;;
48403;SDS011;34202;52.536;6.042;2022-12-18T11:29:41;11.30;;;6.80;;
48403;SDS011;34202;52.536;6.042;2022-12-18T11:34:43;11.40;;;6.80;;
48403;SDS011;34202;52.536;6.042;2022-12-18T11:39:53;11.20;;;6.60;;
48403;SDS011;34202;52.536;6.042;2022-12-18T11:45:00;10.90;;;7.30;;
48403;SDS011;34202;52.536;6.042;2022-12-18T11:50:12;11.40;;;6.60;;
48403;SDS011;34202;52.536;6.042;2022-12-18T12:00:32;16.70;;;8.40;;
48403;SDS011;34202;52.536;6.042;2022-12-18T12:21:09;12.00;;;7.10;;
48403;SDS011;34202;52.536;6.042;2022-12-18T12:41:40;10.70;;;7.60;;
48403;SDS011;34202;52.536;6.042;2022-12-18T12:47:02;9.50;;;5.30;;
48403;SDS011;34202;52.536;6.042;2022-12-18T12:52:27;9.90;;;5.50;;
48403;SDS011;34202;52.536;6.042;2022-12-18T12:57:34;8.70;;;5.90;;
48403;SDS011;34202;52.536;6.042;2022-12-18T13:08:21;10.70;;;7.80;;
48403;SDS011;34202;52.536;6.042;2022-12-18T13:13:47;10.70;;;6.30;;
48403;SDS011;34202;52.536;6.042;2022-12-18T13:18:55;9.20;;;6.80;;
48403;SDS011;34202;52.536;6.042;2022-12-18T13:24:43;10.20;;;6.30;;
48403;SDS011;34202;52.536;6.042;2022-12-18T13:29:41;8.70;;;5.90;;
48403;SDS011;34202;52.536;6.042;2022-12-18T13:34:44;8.80;;;5.90;;
48403;SDS011;34202;52.536;6.042;2022-12-18T13:39:44;10.20;;;6.20;;
48403;SDS011;34202;52.536;6.042;2022-12-18T13:44:44;7.90;;;5.30;;
48403;SDS011;34202;52.536;6.042;2022-12-18T13:49:45;8.10;;;5.00;;
48403;SDS011;34202;52.536;6.042;2022-12-18T13:54:53;8.50;;;5.60;;
48403;SDS011;34202;52.536;6.042;2022-12-18T13:59:56;11.70;;;6.10;;
48403;SDS011;34202;52.536;6.042;2022-12-18T14:10:26;10.60;;;6.00;;
48403;SDS011;34202;52.536;6.042;2022-12-18T14:20:44;9.00;;;5.30;;
48403;SDS011;34202;52.536;6.042;2022-12-18T14:25:45;6.00;;;4.50;;
48403;SDS011;34202;52.536;6.042;2022-12-18T14:30:46;11.20;;;5.10;;
48403;SDS011;34202;52.536;6.042;2022-12-18T14:51:46;9.70;;;6.30;;
48403;SDS011;34202;52.536;6.042;2022-12-18T15:02:23;12.40;;;6.60;;
48403;SDS011;34202;52.536;6.042;2022-12-18T15:07:26;11.20;;;5.80;;
48403;SDS011;34202;52.536;6.042;2022-12-18T15:12:37;9.00;;;6.10;;
48403;SDS011;34202;52.536;6.042;2022-12-18T15:17:43;12.40;;;7.30;;
48403;SDS011;34202;52.536;6.042;2022-12-18T15:22:43;9.60;;;6.40;;
48403;SDS011;34202;52.536;6.042;2022-12-18T15:27:47;12.50;;;5.60;;
48403;SDS011;34202;52.536;6.042;2022-12-18T15:32:47;11.50;;;6.60;;
48403;SDS011;34202;52.536;6.042;2022-12-18T15:37:49;9.50;;;5.80;;
48403;SDS011;34202;52.536;6.042;2022-12-18T15:42:51;10.50;;;6.30;;
48403;SDS011;34202;52.536;6.042;2022-12-18T15:48:20;7.50;;;6.00;;
48403;SDS011;34202;52.536;6.042;2022-12-18T15:53:26;9.10;;;6.10;;
48403;SDS011;34202;52.536;6.042;2022-12-18T15:58:30;10.90;;;6.10;;
48403;SDS011;34202;52.536;6.042;2022-12-18T16:03:30;8.20;;;6.00;;
48403;SDS011;34202;52.536;6.042;2022-12-18T16:08:30;10.30;;;7.30;;
48403;SDS011;34202;52.536;6.042;2022-12-18T16:13:31;10.40;;;6.20;;
48403;SDS011;34202;52.536;6.042;2022-12-18T16:18:31;10.50;;;7.00;;
48403;SDS011;34202;52.536;6.042;2022-12-18T16:23:32;9.60;;;6.80;;
48403;SDS011;34202;52.536;6.042;2022-12-18T16:28:32;9.70;;;6.80;;
48403;SDS011;34202;52.536;6.042;2022-12-18T16:33:32;10.50;;;7.00;;
48403;SDS011;34202;52.536;6.042;2022-12-18T16:38:32;11.90;;;6.70;;
48403;SDS011;34202;52.536;6.042;2022-12-18T16:43:33;10.40;;;6.40;;
48403;SDS011;34202;52.536;6.042;2022-12-18T16:48:33;10.10;;;6.70;;
48403;SDS011;34202;52.536;6.042;2022-12-18T16:53:34;11.20;;;6.30;;
48403;SDS011;34202;52.536;6.042;2022-12-18T16:58:34;12.10;;;7.20;;
48403;SDS011;34202;52.536;6.042;2022-12-18T17:03:35;9.30;;;6.90;;
48403;SDS011;34202;52.536;6.042;2022-12-18T17:08:35;11.10;;;6.50;;
48403;SDS011;34202;52.536;6.042;2022-12-18T17:13:35;14.40;;;8.90;;
48403;SDS011;34202;52.536;6.042;2022-12-18T17:18:36;11.30;;;7.60;;
48403;SDS011;34202;52.536;6.042;2022-12-18T17:23:37;11.70;;;6.90;;
48403;SDS011;34202;52.536;6.042;2022-12-18T17:28:38;14.00;;;8.10;;
48403;SDS011;34202;52.536;6.042;2022-12-18T17:33:39;12.00;;;7.40;;
48403;SDS011;34202;52.536;6.042;2022-12-18T17:38:39;9.90;;;7.00;;
48403;SDS011;34202;52.536;6.042;2022-12-18T17:43:40;14.20;;;8.70;;
48403;SDS011;34202;52.536;6.042;2022-12-18T17:48:46;15.20;;;7.20;;
48403;SDS011;34202;52.536;6.042;2022-12-18T17:53:47;15.80;;;7.80;;
48403;SDS011;34202;52.536;6.042;2022-12-18T17:58:48;14.40;;;8.80;;
48403;SDS011;34202;52.536;6.042;2022-12-18T18:03:49;13.10;;;8.90;;
48403;SDS011;34202;52.536;6.042;2022-12-18T18:08:50;14.00;;;9.40;;
48403;SDS011;34202;52.536;6.042;2022-12-18T18:13:51;21.10;;;10.20;;
48403;SDS011;34202;52.536;6.042;2022-12-18T18:19:01;20.90;;;10.30;;
48403;SDS011;34202;52.536;6.042;2022-12-18T18:24:07;19.20;;;11.70;;
48403;SDS011;34202;52.536;6.042;2022-12-18T18:29:10;17.70;;;10.50;;
48403;SDS011;34202;52.536;6.042;2022-12-18T18:34:17;26.20;;;14.70;;
48403;SDS011;34202;52.536;6.042;2022-12-18T18:39:20;21.80;;;12.30;;
48403;SDS011;34202;52.536;6.042;2022-12-18T18:44:20;23.50;;;12.80;;
48403;SDS011;34202;52.536;6.042;2022-12-18T18:49:21;16.60;;;11.60;;
48403;SDS011;34202;52.536;6.042;2022-12-18T18:54:23;21.00;;;12.60;;
48403;SDS011;34202;52.536;6.042;2022-12-18T18:59:25;26.50;;;15.10;;
48403;SDS011;34202;52.536;6.042;2022-12-18T19:04:25;22.90;;;13.60;;
48403;SDS011;34202;52.536;6.042;2022-12-18T19:09:25;23.60;;;15.10;;
48403;SDS011;34202;52.536;6.042;2022-12-18T19:14:26;28.80;;;15.30;;
48403;SDS011;34202;52.536;6.042;2022-12-18T19:19:26;25.50;;;14.50;;
48403;SDS011;34202;52.536;6.042;2022-12-18T19:24:27;27.60;;;14.90;;
48403;SDS011;34202;52.536;6.042;2022-12-18T19:29:27;29.30;;;17.30;;
48403;SDS011;34202;52.536;6.042;2022-12-18T19:34:28;28.30;;;15.30;;
48403;SDS011;34202;52.536;6.042;2022-12-18T19:39:28;26.70;;;15.50;;
48403;SDS011;34202;52.536;6.042;2022-12-18T19:44:28;31.70;;;16.30;;
48403;SDS011;34202;52.536;6.042;2022-12-18T19:49:29;24.00;;;15.30;;
48403;SDS011;34202;52.536;6.042;2022-12-18T19:54:31;25.70;;;16.20;;
48403;SDS011;34202;52.536;6.042;2022-12-18T19:59:31;22.80;;;13.80;;
48403;SDS011;34202;52.536;6.042;2022-12-18T20:04:31;30.80;;;16.80;;
48403;SDS011;34202;52.536;6.042;2022-12-18T20:09:31;33.30;;;16.40;;
48403;SDS011;34202;52.536;6.042;2022-12-18T20:14:32;29.70;;;16.10;;
48403;SDS011;34202;52.536;6.042;2022-12-18T20:19:32;32.40;;;20.10;;
48403;SDS011;34202;52.536;6.042;2022-12-18T20:24:33;26.60;;;15.70;;
48403;SDS011;34202;52.536;6.042;2022-12-18T20:29:33;31.70;;;17.50;;
48403;SDS011;34202;52.536;6.042;2022-12-18T20:34:34;29.60;;;16.50;;
48403;SDS011;34202;52.536;6.042;2022-12-18T20:39:34;30.40;;;19.10;;
48403;SDS011;34202;52.536;6.042;2022-12-18T20:44:35;29.10;;;16.20;;
48403;SDS011;34202;52.536;6.042;2022-12-18T20:49:35;27.20;;;16.30;;
48403;SDS011;34202;52.536;6.042;2022-12-18T20:54:35;28.20;;;16.70;;
48403;SDS011;34202;52.536;6.042;2022-12-18T20:59:36;29.40;;;16.70;;
48403;SDS011;34202;52.536;6.042;2022-12-18T21:04:36;30.00;;;16.30;;
48403;SDS011;34202;52.536;6.042;2022-12-18T21:09:36;29.90;;;16.80;;
48403;SDS011;34202;52.536;6.042;2022-12-18T21:14:37;32.00;;;17.80;;
48403;SDS011;34202;52.536;6.042;2022-12-18T21:19:37;30.30;;;18.30;;
48403;SDS011;34202;52.536;6.042;2022-12-18T21:24:38;32.50;;;19.10;;
48403;SDS011;34202;52.536;6.042;2022-12-18T21:29:38;34.70;;;19.70;;
48403;SDS011;34202;52.536;6.042;2022-12-18T21:34:39;32.40;;;18.60;;
48403;SDS011;34202;52.536;6.042;2022-12-18T21:39:40;31.40;;;18.70;;
48403;SDS011;34202;52.536;6.042;2022-12-18T21:44:40;27.70;;;17.10;;
48403;SDS011;34202;52.536;6.042;2022-12-18T21:49:41;33.90;;;17.70;;
48403;SDS011;34202;52.536;6.042;2022-12-18T21:54:41;30.50;;;18.00;;
48403;SDS011;34202;52.536;6.042;2022-12-18T21:59:41;36.00;;;19.00;;
48403;SDS011;34202;52.536;6.042;2022-12-18T22:04:45;32.50;;;18.10;;
48403;SDS011;34202;52.536;6.042;2022-12-18T22:09:45;35.50;;;20.10;;
48403;SDS011;34202;52.536;6.042;2022-12-18T22:14:47;38.00;;;22.50;;
48403;SDS011;34202;52.536;6.042;2022-12-18T22:19:47;39.20;;;22.60;;
48403;SDS011;34202;52.536;6.042;2022-12-18T22:24:48;37.50;;;22.00;;
48403;SDS011;34202;52.536;6.042;2022-12-18T22:29:48;31.00;;;19.00;;
48403;SDS011;34202;52.536;6.042;2022-12-18T22:35:04;36.90;;;20.40;;
48403;SDS011;34202;52.536;6.042;2022-12-18T22:40:05;32.50;;;18.70;;
48403;SDS011;34202;52.536;6.042;2022-12-18T22:45:05;32.90;;;20.00;;
48403;SDS011;34202;52.536;6.042;2022-12-18T22:50:06;32.50;;;20.50;;
48403;SDS011;34202;52.536;6.042;2022-12-18T22:55:07;35.20;;;21.80;;
48403;SDS011;34202;52.536;6.042;2022-12-18T23:00:08;35.20;;;19.00;;
48403;SDS011;34202;52.536;6.042;2022-12-18T23:05:09;35.00;;;20.80;;
48403;SDS011;34202;52.536;6.042;2022-12-18T23:10:09;36.90;;;20.40;;
48403;SDS011;34202;52.536;6.042;2022-12-18T23:15:10;39.70;;;21.50;;
48403;SDS011;34202;52.536;6.042;2022-12-18T23:20:10;38.50;;;22.30;;
48403;SDS011;34202;52.536;6.042;2022-12-18T23:25:11;35.90;;;21.20;;
48403;SDS011;34202;52.536;6.042;2022-12-18T23:30:11;37.40;;;23.30;;
48403;SDS011;34202;52.536;6.042;2022-12-18T23:35:12;38.20;;;19.60;;
48403;SDS011;34202;52.536;6.042;2022-12-18T23:40:12;34.80;;;20.10;;
48403;SDS011;34202;52.536;6.042;2022-12-18T23:45:12;39.70;;;22.80;;
48403;SDS011;34202;52.536;6.042;2022-12-18T23:50:13;37.00;;;20.50;;
48403;SDS011;34202;52.536;6.042;2022-12-18T23:55:13;39.00;;;22.80;;
